createdAt,value
2023-04-07T00:03:41.898Z,8.13
2023-04-07T00:08:46.127Z,8.23
2023-04-07T00:13:49.376Z,7.50
2023-04-07T00:18:52.883Z,8.50
2023-04-07T00:23:56.491Z,7.57
2023-04-07T00:29:00.340Z,8.63
2023-04-07T00:34:03.697Z,8.37
2023-04-07T00:39:06.906Z,7.47
2023-04-07T00:44:10.526Z,8.40
2023-04-07T00:49:13.997Z,8.47
2023-04-07T00:54:18.678Z,8.57
2023-04-07T00:59:22.443Z,8.53
2023-04-07T01:04:33.005Z,6.73
2023-04-07T01:09:46.728Z,8.50
2023-04-07T01:14:59.188Z,8.57
2023-04-07T01:20:09.123Z,7.87
2023-04-07T01:25:52.418Z,8.80
2023-04-07T01:30:58.793Z,8.23
2023-04-07T01:36:03.412Z,7.67
2023-04-07T01:41:09.054Z,6.87
2023-04-07T01:46:12.398Z,7.50
2023-04-07T01:51:19.347Z,7.73
2023-04-07T01:56:22.628Z,6.43
2023-04-07T02:01:26.522Z,7.30
2023-04-07T02:06:43.136Z,6.63
2023-04-07T02:11:47.048Z,7.70
2023-04-07T02:16:51.574Z,6.67
2023-04-07T02:21:55.156Z,7.90
2023-04-07T02:26:59.076Z,7.10
2023-04-07T02:32:02.340Z,6.73
2023-04-07T02:37:05.638Z,8.60
2023-04-07T02:42:09.036Z,7.37
2023-04-07T02:47:12.716Z,7.70
2023-04-07T02:52:16.235Z,7.43
2023-04-07T02:57:19.891Z,7.27
2023-04-07T03:02:23.640Z,8.30
2023-04-07T03:07:27.294Z,7.70
2023-04-07T03:12:30.972Z,8.17
2023-04-07T03:17:34.682Z,8.87
2023-04-07T03:22:38.032Z,8.53
2023-04-07T03:27:41.321Z,8.10
2023-04-07T03:32:45.150Z,8.83
2023-04-07T03:37:48.404Z,8.90
2023-04-07T03:42:51.732Z,9.10
2023-04-07T03:47:55.034Z,8.73
2023-04-07T03:52:58.286Z,8.83
2023-04-07T03:58:01.737Z,9.90
2023-04-07T04:03:05.477Z,10.17
2023-04-07T04:08:09.183Z,9.80
2023-04-07T04:13:12.492Z,11.00
2023-04-07T04:18:15.973Z,10.40
2023-04-07T04:23:19.340Z,10.17
2023-04-07T04:28:22.556Z,11.70
2023-04-07T04:33:26.182Z,10.27
2023-04-07T04:38:29.432Z,8.13
2023-04-07T04:43:32.694Z,10.07
2023-04-07T04:48:36.343Z,10.33
2023-04-07T04:53:39.746Z,11.40
2023-04-07T04:58:46.761Z,10.13
2023-04-07T05:03:50.939Z,10.37
2023-04-07T05:08:54.758Z,9.50
2023-04-07T05:13:58.023Z,10.50
2023-04-07T05:19:01.388Z,11.80
2023-04-07T05:24:04.902Z,12.43
2023-04-07T05:29:08.662Z,13.93
2023-04-07T05:34:12.011Z,11.93
2023-04-07T05:39:15.355Z,12.57
2023-04-07T05:44:18.651Z,12.50
2023-04-07T05:49:21.932Z,12.07
2023-04-07T05:54:25.495Z,11.93
2023-04-07T05:59:28.791Z,13.47
2023-04-07T06:04:33.596Z,13.17
2023-04-07T06:09:37.065Z,13.57
2023-04-07T06:14:40.292Z,13.63
2023-04-07T06:19:43.811Z,12.93
2023-04-07T06:24:47.304Z,13.17
2023-04-07T06:29:50.972Z,13.17
2023-04-07T06:34:54.413Z,14.17
2023-04-07T06:39:57.798Z,13.23
2023-04-07T06:45:01.126Z,13.67
2023-04-07T06:50:04.796Z,14.33
2023-04-07T06:55:08.580Z,13.43
2023-04-07T07:00:12.447Z,13.27
2023-04-07T07:05:15.941Z,12.43
2023-04-07T07:10:21.156Z,13.20
2023-04-07T07:15:24.825Z,13.43
2023-04-07T07:20:28.216Z,13.70
2023-04-07T07:25:31.365Z,14.00
2023-04-07T07:30:34.756Z,14.07
2023-04-07T07:35:39.140Z,12.63
2023-04-07T07:40:42.393Z,13.20
2023-04-07T07:45:46.046Z,14.00
2023-04-07T07:50:49.570Z,13.20
2023-04-07T07:55:53.183Z,11.40
2023-04-07T08:00:57.151Z,12.63
2023-04-07T08:06:01.539Z,12.50
2023-04-07T08:11:05.279Z,14.03
2023-04-07T08:16:08.753Z,14.40
2023-04-07T08:21:14.485Z,13.93
2023-04-07T08:26:18.171Z,13.47
2023-04-07T08:31:21.475Z,12.90
2023-04-07T08:36:26.815Z,15.47
2023-04-07T08:41:43.125Z,14.47
2023-04-07T08:46:47.953Z,12.93
2023-04-07T08:51:53.614Z,12.23
2023-04-07T08:56:57.806Z,13.30
2023-04-07T09:02:01.341Z,14.37
2023-04-07T09:07:04.745Z,15.57
2023-04-07T09:12:08.079Z,14.10
2023-04-07T09:17:12.061Z,14.83
2023-04-07T09:22:15.765Z,13.67
2023-04-07T09:27:20.023Z,14.10
2023-04-07T09:32:39.724Z,14.93
2023-04-07T09:37:43.133Z,15.27
2023-04-07T09:42:48.715Z,14.30
2023-04-07T09:47:52.279Z,15.03
2023-04-07T09:52:55.955Z,15.27
2023-04-07T09:57:59.949Z,15.67
2023-04-07T10:03:04.796Z,17.23
2023-04-07T10:08:08.396Z,16.97
2023-04-07T10:13:12.716Z,16.33
2023-04-07T10:18:18.823Z,17.50
2023-04-07T10:23:26.834Z,17.93
2023-04-07T10:28:32.411Z,17.53
2023-04-07T10:33:52.955Z,19.27
2023-04-07T10:39:08.236Z,17.13
2023-04-07T10:44:43.916Z,18.93
2023-04-07T10:50:20.185Z,18.47
2023-04-07T10:55:31.331Z,16.87
2023-04-07T11:00:34.882Z,18.03
2023-04-07T11:05:39.341Z,17.00
2023-04-07T11:10:48.834Z,18.27
2023-04-07T11:15:53.044Z,16.80
2023-04-07T11:20:59.699Z,16.60
2023-04-07T11:26:03.619Z,16.00
2023-04-07T11:31:07.317Z,16.60
2023-04-07T11:36:10.595Z,17.07
2023-04-07T11:41:16.409Z,17.33
2023-04-07T11:46:19.960Z,16.27
2023-04-07T11:51:28.591Z,15.97
2023-04-07T11:56:47.082Z,16.87
2023-04-07T12:01:52.708Z,17.33
2023-04-07T12:07:10.888Z,18.57
2023-04-07T12:12:14.777Z,18.73
2023-04-07T12:17:22.636Z,18.33
2023-04-07T12:22:26.271Z,19.07
2023-04-07T12:27:39.956Z,19.50
2023-04-07T12:32:46.418Z,17.90
2023-04-07T12:37:50.139Z,18.30
2023-04-07T12:42:53.609Z,17.87
2023-04-07T12:47:57.223Z,17.53
2023-04-07T12:53:03.814Z,19.40
2023-04-07T12:58:08.214Z,17.33
2023-04-07T13:03:12.139Z,17.20
2023-04-07T13:08:15.590Z,17.30
2023-04-07T13:13:18.730Z,16.67
2023-04-07T13:18:22.196Z,18.50
2023-04-07T13:23:26.329Z,18.03
2023-04-07T13:28:29.777Z,19.50
2023-04-07T13:33:32.997Z,16.27
2023-04-07T13:38:36.274Z,18.50
2023-04-07T13:43:39.886Z,21.90
2023-04-07T13:48:43.137Z,21.17
2023-04-07T13:53:47.235Z,23.00
2023-04-07T13:58:50.990Z,22.33
2023-04-07T14:03:54.732Z,21.80
2023-04-07T14:08:59.509Z,21.67
2023-04-07T14:14:02.850Z,22.40
2023-04-07T14:19:07.373Z,21.73
2023-04-07T14:24:11.008Z,21.80
2023-04-07T14:29:15.093Z,22.17
2023-04-07T14:34:18.572Z,22.97
2023-04-07T14:39:23.284Z,23.17
2023-04-07T14:44:26.785Z,22.23
2023-04-07T14:49:30.008Z,21.37
2023-04-07T14:54:33.630Z,21.53
2023-04-07T14:59:37.008Z,21.90
2023-04-07T15:04:40.400Z,22.20
2023-04-07T15:09:43.728Z,20.77
2023-04-07T15:14:46.877Z,23.63
2023-04-07T15:19:50.378Z,20.80
2023-04-07T15:24:53.694Z,21.73
2023-04-07T15:29:57.197Z,23.83
2023-04-07T15:35:00.430Z,21.80
2023-04-07T15:40:03.632Z,23.93
2023-04-07T15:45:08.374Z,23.17
2023-04-07T15:50:11.995Z,23.43
2023-04-07T15:55:15.689Z,21.97
2023-04-07T16:00:19.445Z,23.03
2023-04-07T16:05:22.975Z,23.83
2023-04-07T16:10:27.625Z,25.43
2023-04-07T16:15:40.265Z,23.87
2023-04-07T16:20:45.086Z,25.50
2023-04-07T16:25:48.399Z,23.87
2023-04-07T16:30:51.688Z,23.17
2023-04-07T16:35:55.052Z,25.50
2023-04-07T16:41:04.528Z,26.10
2023-04-07T16:46:08.470Z,24.67
2023-04-07T16:51:16.191Z,21.67
2023-04-07T16:56:24.372Z,22.30
2023-04-07T17:01:32.522Z,21.03
2023-04-07T17:06:35.848Z,21.70
2023-04-07T17:11:41.749Z,22.27
2023-04-07T17:16:44.988Z,21.43
2023-04-07T17:21:49.144Z,23.10
2023-04-07T17:26:53.699Z,19.73
2023-04-07T17:31:57.803Z,19.40
2023-04-07T17:37:01.327Z,17.90
2023-04-07T17:42:04.924Z,20.37
2023-04-07T17:47:08.245Z,20.83
2023-04-07T17:52:11.667Z,21.40
2023-04-07T17:57:16.383Z,19.73
2023-04-07T18:02:20.155Z,21.73
2023-04-07T18:07:24.305Z,19.10
2023-04-07T18:12:27.606Z,19.53
2023-04-07T18:17:31.402Z,21.73
2023-04-07T18:22:34.809Z,22.80
2023-04-07T18:27:38.286Z,22.00
2023-04-07T18:32:41.975Z,21.90
2023-04-07T18:37:45.567Z,22.33
2023-04-07T18:42:48.985Z,22.77
2023-04-07T18:47:52.699Z,24.67
2023-04-07T18:52:56.442Z,20.87
2023-04-07T18:57:59.669Z,23.33
2023-04-07T19:03:04.070Z,23.03
2023-04-07T19:08:08.033Z,23.70
2023-04-07T19:13:16.170Z,28.73
2023-04-07T19:18:20.061Z,27.97
2023-04-07T19:23:23.704Z,26.67
2023-04-07T19:28:28.424Z,29.93
2023-04-07T19:33:31.826Z,29.37
2023-04-07T19:38:35.300Z,30.47
2023-04-07T19:43:38.723Z,32.03
2023-04-07T19:48:42.939Z,32.70
2023-04-07T19:53:46.751Z,34.77
2023-04-07T19:58:50.471Z,33.63
2023-04-07T20:03:53.911Z,33.50
2023-04-07T20:08:59.046Z,35.23
2023-04-07T20:14:03.310Z,34.53
2023-04-07T20:19:06.606Z,34.50
2023-04-07T20:24:09.720Z,33.77
2023-04-07T20:29:13.091Z,32.43
2023-04-07T20:34:17.016Z,34.07
2023-04-07T20:39:20.569Z,35.70
2023-04-07T20:44:24.150Z,36.70
2023-04-07T20:49:29.377Z,41.43
2023-04-07T20:54:34.343Z,41.60
2023-04-07T20:59:37.493Z,42.43
2023-04-07T21:04:41.025Z,41.27
2023-04-07T21:09:44.514Z,43.60
2023-04-07T21:14:47.635Z,43.47
2023-04-07T21:19:51.505Z,42.60
2023-04-07T21:24:56.189Z,40.03
2023-04-07T21:30:00.543Z,39.00
2023-04-07T21:35:04.604Z,40.03
2023-04-07T21:40:08.854Z,39.23
2023-04-07T21:45:13.182Z,39.63
2023-04-07T21:50:17.161Z,37.77
2023-04-07T21:55:21.073Z,35.63
2023-04-07T22:00:24.544Z,36.07
2023-04-07T22:05:28.440Z,37.37
2023-04-07T22:10:31.929Z,36.90
2023-04-07T22:15:35.518Z,37.47
2023-04-07T22:20:39.029Z,35.87
2023-04-07T22:25:42.211Z,37.83
2023-04-07T22:30:45.906Z,40.50
2023-04-07T22:35:49.331Z,39.97
2023-04-07T22:40:52.450Z,40.57
2023-04-07T22:45:55.935Z,39.20
2023-04-07T22:50:59.195Z,41.53
2023-04-07T22:56:03.048Z,39.27
2023-04-07T23:01:06.222Z,38.53
2023-04-07T23:06:09.680Z,36.00
2023-04-07T23:11:12.925Z,34.97
2023-04-07T23:16:16.740Z,36.87
2023-04-07T23:21:20.354Z,37.00
2023-04-07T23:26:23.937Z,39.50
2023-04-07T23:31:28.595Z,36.87
2023-04-07T23:36:32.565Z,36.23
2023-04-07T23:41:35.872Z,37.77
2023-04-07T23:46:39.101Z,37.33
2023-04-07T23:51:42.170Z,35.80
2023-04-07T23:56:45.567Z,37.83
